Newmansville, Illinois
Current Conditions -  °F | °C
As of 8:15 PM on Monday 22 Dec 2014 (Local Time) from KIJX Reporting Station
Light Rain Light Rain  
Wind Chill: 45°   Ceiling: 400
Heat Index: 48°   Visibility: 3mi
Dew Point: 47°   Wind: 8mph
Humidity: 94%   Direction: 130°SE
Pressure: 29.51"   Gusts: NA
Location:  39.9123°N, 90.0575°W
Report Text: KIJX 230215Z AUTO 13007KT 3SM -RA OVC004 09/08 A2951 RMK AO2 T00900081
Loading
Personal Weather Stations






























Interactive Weather Map New forecast layout! Learn more

10-Day Weather Forecast

Advertisements
Track Severe Weather on mobile